Time;durP1;ratioP1;P1;durP2;ratioP2;P2;SDS_P1;SDS_P2;PMS_P1;PMS_P2;Temp;Humidity;BMP_temperature;BMP_pressure;BME280_temperature;BME280_humidity;BME280_pressure;Samples;Min_cycle;Max_cycle;Signal;HPM_P1;HPM_P2
2024/01/15 00:02:20;;;;;;;11.25;1.60;;;;;;;3.21;78.45;99688.78;7391876;19;20432;-64
2024/01/15 00:04:51;;;;;;;7.68;1.27;;;;;;;3.28;78.48;99694.44;7389289;19;20035;-64
2024/01/15 00:07:21;;;;;;;7.18;1.13;;;;;;;3.42;77.46;99694.47;7392329;19;20490;-64
2024/01/15 00:09:51;;;;;;;11.05;1.40;;;;;;;3.29;78.05;99685.69;7391320;19;20022;-64
2024/01/15 00:12:22;;;;;;;5.78;1.10;;;;;;;3.23;77.91;99679.03;7393344;19;20062;-63
2024/01/15 00:14:53;;;;;;;9.32;1.35;;;;;;;3.28;78.21;99687.47;7394353;19;20007;-63
2024/01/15 00:17:23;;;;;;;7.25;1.42;;;;;;;3.34;78.02;99671.38;7392388;19;20021;-64
2024/01/15 00:19:53;;;;;;;8.57;1.40;;;;;;;3.55;77.43;99674.47;7390073;19;20058;-64
2024/01/15 00:22:26;;;;;;;9.45;1.67;;;;;;;3.55;77.23;99677.06;7391998;19;20038;-64
2024/01/15 00:24:56;;;;;;;6.38;1.25;;;;;;;3.61;76.94;99671.44;7392006;19;20082;-64
2024/01/15 00:27:28;;;;;;;7.07;1.20;;;;;;;3.57;77.19;99669.97;7391725;19;20018;-64
2024/01/15 00:29:59;;;;;;;10.95;1.42;;;;;;;3.50;77.60;99676.50;7389566;19;20035;-64
2024/01/15 00:32:35;;;;;;;9.60;1.67;;;;;;;3.55;77.29;99673.59;7394815;19;20015;-64
2024/01/15 00:35:06;;;;;;;12.00;1.80;;;;;;;3.46;77.46;99663.72;7398097;19;20081;-64
2024/01/15 00:37:38;;;;;;;9.20;1.23;;;;;;;3.41;77.80;99664.84;7399409;19;20019;-63
2024/01/15 00:40:09;;;;;;;10.13;2.03;;;;;;;3.44;77.69;99669.06;7395806;19;20013;-64
2024/01/15 00:42:40;;;;;;;7.75;1.40;;;;;;;3.42;77.85;99678.75;7398750;19;20042;-64
2024/01/15 00:45:11;;;;;;;9.63;2.08;;;;;;;3.52;77.35;99661.56;7396253;19;20015;-63
2024/01/15 00:47:41;;;;;;;6.72;1.23;;;;;;;3.55;77.35;99666.59;7395467;19;20014;-63
2024/01/15 00:50:11;;;;;;;11.60;1.30;;;;;;;3.52;77.04;99658.09;7396096;19;20086;-64
2024/01/15 00:52:41;;;;;;;13.93;1.75;;;;;;;3.60;77.16;99661.91;7397082;19;20470;-64
2024/01/15 00:55:12;;;;;;;10.32;1.63;;;;;;;3.42;77.24;99636.88;7397761;19;20022;-64
2024/01/15 00:57:41;;;;;;;12.00;1.60;;;;;;;3.48;77.31;99654.84;7396341;19;20019;-64
2024/01/15 01:00:12;;;;;;;10.15;1.67;;;;;;;3.57;77.50;99646.41;7395484;19;20011;-64
2024/01/15 01:02:42;;;;;;;10.13;1.65;;;;;;;3.49;78.01;99647.81;7399326;19;20026;-63
2024/01/15 01:05:13;;;;;;;10.50;1.70;;;;;;;3.44;78.32;99648.13;7397476;19;20049;-64
2024/01/15 01:07:42;;;;;;;7.72;1.27;;;;;;;3.35;78.44;99638.19;7399164;19;20030;-63
2024/01/15 01:10:12;;;;;;;6.22;1.30;;;;;;;3.44;78.54;99642.03;7396080;19;20017;-64
2024/01/15 01:12:42;;;;;;;8.10;1.30;;;;;;;3.40;78.45;99621.28;7399338;19;20019;-64
2024/01/15 01:15:12;;;;;;;7.25;1.70;;;;;;;3.51;78.29;99625.88;7398395;19;20014;-63
2024/01/15 01:17:42;;;;;;;7.15;1.80;;;;;;;3.54;77.96;99643.97;7398589;19;20081;-65
2024/01/15 01:20:15;;;;;;;5.25;1.13;;;;;;;3.44;78.28;99611.47;7394627;19;20459;-61
2024/01/15 01:22:48;;;;;;;8.02;1.38;;;;;;;3.50;78.42;99621.53;7395662;19;20022;-61
2024/01/15 01:25:19;;;;;;;6.97;1.00;;;;;;;3.54;78.75;99627.44;7393783;19;20383;-61
2024/01/15 01:27:49;;;;;;;7.88;1.38;;;;;;;3.52;79.35;99629.31;7395512;19;20018;-61
2024/01/15 01:30:20;;;;;;;10.10;1.58;;;;;;;3.40;79.67;99631.75;7394013;19;20029;-61
2024/01/15 01:32:51;;;;;;;5.15;0.95;;;;;;;3.28;80.27;99605.50;7396665;19;20443;-62
2024/01/15 01:35:22;;;;;;;4.78;0.90;;;;;;;3.29;80.68;99631.59;7396388;19;20025;-62
2024/01/15 01:37:52;;;;;;;6.70;1.25;;;;;;;3.10;82.26;99617.97;7394812;19;20021;-60
2024/01/15 01:40:22;;;;;;;8.55;1.33;;;;;;;3.13;82.42;99617.78;7393664;19;20026;-62
2024/01/15 01:42:53;;;;;;;5.82;0.90;;;;;;;3.15;82.12;99621.97;7396665;19;20367;-62
2024/01/15 01:45:24;;;;;;;7.75;1.30;;;;;;;3.21;81.65;99626.00;7391721;19;20018;-61
2024/01/15 01:47:54;;;;;;;6.95;1.20;;;;;;;3.18;82.05;99616.53;7396107;19;20022;-59
2024/01/15 01:50:25;;;;;;;6.30;0.93;;;;;;;3.28;81.45;99615.97;7393087;19;20010;-60
2024/01/15 01:52:55;;;;;;;7.97;1.10;;;;;;;3.29;81.46;99615.88;7395725;19;20078;-59
2024/01/15 01:55:29;;;;;;;7.95;1.00;;;;;;;3.25;81.67;99621.41;7394352;19;20022;-59
2024/01/15 01:58:00;;;;;;;;;;;;;;;3.07;82.03;99618.13;7396969;19;20039;-59
2024/01/15 02:00:35;;;;;;;;;;;;;;;2.90;83.23;99609.56;7392144;19;19923;-60
2024/01/15 02:03:05;;;;;;;8.18;1.20;;;;;;;3.01;82.78;99611.50;7393882;19;19958;-58
2024/01/15 02:05:39;;;;;;;6.18;1.25;;;;;;;3.13;82.60;99617.78;7393416;19;20483;-59
2024/01/15 02:08:12;;;;;;;7.50;1.05;;;;;;;3.26;82.25;99615.22;7393939;19;20022;-59
2024/01/15 02:10:43;;;;;;;9.45;1.25;;;;;;;3.31;81.76;99600.91;7392897;19;20367;-60
2024/01/15 02:13:13;;;;;;;7.68;1.42;;;;;;;3.32;81.53;99599.13;7395198;19;20046;-57
2024/01/15 02:15:44;;;;;;;9.30;1.27;;;;;;;3.22;82.03;99598.06;7395110;19;20018;-58
2024/01/15 02:18:15;;;;;;;7.60;1.70;;;;;;;3.34;81.83;99610.38;7395279;19;20097;-58
2024/01/15 02:20:46;;;;;;;6.22;1.20;;;;;;;3.34;81.32;99602.50;7392788;19;20424;-58
2024/01/15 02:23:16;;;;;;;8.00;1.23;;;;;;;3.40;81.66;99605.59;7395302;19;20018;-58
2024/01/15 02:25:47;;;;;;;7.95;1.73;;;;;;;3.33;81.74;99603.47;7393414;19;20025;-57
2024/01/15 02:28:18;;;;;;;11.25;1.85;;;;;;;3.32;81.74;99592.16;7394593;19;20048;-57
2024/01/15 02:30:48;;;;;;;6.55;1.42;;;;;;;3.44;81.35;99602.78;7393077;19;20015;-58
2024/01/15 02:33:19;;;;;;;10.63;1.67;;;;;;;3.50;81.21;99586.69;7393768;19;20014;-58
2024/01/15 02:35:50;;;;;;;7.57;1.85;;;;;;;3.49;80.97;99578.00;7394683;19;20038;-56
2024/01/15 02:38:20;;;;;;;9.07;1.55;;;;;;;3.53;81.06;99589.94;7394263;19;20050;-60
2024/01/15 02:40:51;;;;;;;9.93;1.80;;;;;;;3.61;80.97;99597.31;7392331;19;20461;-57
2024/01/15 02:43:22;;;;;;;11.57;1.75;;;;;;;3.50;81.10;99576.22;7395454;19;20021;-56
2024/01/15 02:45:52;;;;;;;9.60;1.60;;;;;;;3.54;81.51;99577.69;7393429;19;20036;-57
2024/01/15 02:48:23;;;;;;;7.97;1.58;;;;;;;3.53;81.48;99603.03;7393200;19;20086;-59
2024/01/15 02:50:53;;;;;;;5.93;1.42;;;;;;;3.56;81.32;99589.75;7394496;19;20022;-58
2024/01/15 02:53:23;;;;;;;10.90;1.55;;;;;;;3.48;81.42;99589.41;7394340;19;20019;-57
2024/01/15 02:55:54;;;;;;;8.23;1.80;;;;;;;3.34;81.62;99592.88;7392597;19;20047;-58
2024/01/15 02:58:24;;;;;;;8.80;1.50;;;;;;;3.34;81.97;99598.13;7394167;19;20039;-58
2024/01/15 03:00:54;;;;;;;9.85;2.42;;;;;;;3.30;81.81;99614.09;7393701;19;20031;-58
2024/01/15 03:03:25;;;;;;;8.77;1.52;;;;;;;3.26;81.98;99599.53;7393900;19;20561;-57
2024/01/15 03:05:55;;;;;;;5.80;1.20;;;;;;;3.15;82.40;99601.03;7392876;19;20014;-56
2024/01/15 03:08:26;;;;;;;6.38;1.35;;;;;;;3.13;82.49;99591.63;7392240;19;20022;-54
2024/01/15 03:10:56;;;;;;;9.52;1.10;;;;;;;3.07;82.35;99581.53;7393612;19;20100;-55
2024/01/15 03:13:26;;;;;;;8.20;1.30;;;;;;;3.13;82.19;99596.84;7392974;19;20015;-57
2024/01/15 03:15:56;;;;;;;7.40;1.27;;;;;;;3.18;82.04;99600.84;7392783;19;20026;-57
2024/01/15 03:18:28;;;;;;;6.15;1.02;;;;;;;3.22;81.85;99595.44;7392420;19;20026;-59
2024/01/15 03:21:01;;;;;;;8.68;1.15;;;;;;;3.18;82.06;99592.16;7392211;19;20551;-58
2024/01/15 03:23:35;;;;;;;7.18;1.65;;;;;;;3.28;81.84;99597.66;7391941;19;20038;-59
2024/01/15 03:26:05;;;;;;;7.68;1.55;;;;;;;3.17;81.79;99593.94;7389711;19;20025;-56
2024/01/15 03:28:36;;;;;;;6.32;1.80;;;;;;;3.20;81.49;99581.59;7390730;19;20026;-58
2024/01/15 03:31:07;;;;;;;7.70;1.98;;;;;;;3.30;81.45;99587.94;7390847;19;20379;-58
2024/01/15 03:33:38;;;;;;;10.27;1.77;;;;;;;3.12;81.41;99587.31;7391493;19;20014;-59
2024/01/15 03:36:10;;;;;;;11.55;1.40;;;;;;;3.06;81.92;99572.00;7392543;19;20373;-58
2024/01/15 03:38:42;;;;;;;7.18;1.40;;;;;;;3.11;82.01;99581.25;7391822;19;20029;-58
2024/01/15 03:41:12;;;;;;;7.55;1.42;;;;;;;3.13;81.84;99583.78;7392180;19;20022;-58
2024/01/15 03:43:40;;;;;;;5.75;1.20;;;;;;;3.24;81.61;99594.38;7392056;19;20018;-59
2024/01/15 03:46:09;;;;;;;6.50;1.15;;;;;;;3.21;81.74;99596.38;7390586;19;20035;-59
2024/01/15 03:48:38;;;;;;;9.63;1.20;;;;;;;3.30;81.14;99587.94;7389894;19;20022;-59
2024/01/15 03:51:07;;;;;;;6.90;1.02;;;;;;;3.38;80.91;99586.53;7392173;19;20078;-59
2024/01/15 03:53:38;;;;;;;6.25;1.40;;;;;;;3.35;80.79;99599.78;7391705;19;20018;-59
2024/01/15 03:56:08;;;;;;;6.18;1.30;;;;;;;3.31;81.12;99602.69;7391757;19;20025;-58
2024/01/15 03:58:38;;;;;;;10.07;1.20;;;;;;;3.36;81.14;99595.44;7391119;19;20018;-58
2024/01/15 04:01:11;;;;;;;9.20;1.50;;;;;;;3.32;81.28;99607.84;7389869;19;20022;-58
2024/01/15 04:03:42;;;;;;;6.53;1.40;;;;;;;3.26;81.48;99600.38;7391583;19;20022;-59
2024/01/15 04:06:12;;;;;;;6.70;1.20;;;;;;;3.29;81.95;99602.81;7390213;19;20475;-58
2024/01/15 04:08:43;;;;;;;10.68;1.60;;;;;;;3.49;81.43;99600.72;7390266;19;20350;-60
2024/01/15 04:11:13;;;;;;;5.47;1.00;;;;;;;3.39;80.83;99603.88;7391677;19;20043;-59
2024/01/15 04:13:44;;;;;;;8.60;1.50;;;;;;;3.49;81.14;99616.41;7391293;19;20022;-58
2024/01/15 04:16:14;;;;;;;10.13;1.60;;;;;;;3.52;80.56;99624.91;7390939;19;20030;-61
2024/01/15 04:18:44;;;;;;;8.73;1.50;;;;;;;3.54;80.56;99632.66;7391243;19;20093;-60
2024/01/15 04:21:17;;;;;;;6.85;1.63;;;;;;;3.45;81.34;99604.47;7391084;19;20027;-59
2024/01/15 04:23:47;;;;;;;10.93;1.95;;;;;;;3.44;81.60;99601.00;7389792;19;20014;-56
2024/01/15 04:26:17;;;;;;;6.85;1.42;;;;;;;3.46;81.67;99608.75;7389550;19;20019;-59
2024/01/15 04:28:48;;;;;;;6.28;1.10;;;;;;;3.41;81.42;99609.03;7389820;19;20493;-60
2024/01/15 04:31:26;;;;;;;9.18;1.40;;;;;;;3.46;81.03;99609.59;7390509;19;20110;-60
2024/01/15 04:33:58;;;;;;;10.13;1.77;;;;;;;3.56;80.37;99615.09;7390632;19;20014;-61
2024/01/15 04:36:31;;;;;;;9.10;1.60;;;;;;;3.42;80.50;99606.31;7390937;19;20010;-60
2024/01/15 04:39:02;;;;;;;7.78;1.77;;;;;;;3.58;80.00;99611.44;7389062;19;20525;-60
2024/01/15 04:41:35;;;;;;;8.47;1.63;;;;;;;3.59;79.96;99607.06;7391250;19;20031;-60
2024/01/15 04:44:05;;;;;;;9.48;1.80;;;;;;;3.55;80.14;99602.94;7390364;19;20304;-57
2024/01/15 04:46:36;;;;;;;8.32;1.58;;;;;;;3.61;80.21;99613.84;7389139;19;20078;-58
2024/01/15 04:49:07;;;;;;;10.80;1.70;;;;;;;3.54;80.56;99616.97;7389134;19;20023;-60
2024/01/15 04:51:37;;;;;;;12.52;1.65;;;;;;;3.50;80.65;99603.22;7389939;19;20477;-59
2024/01/15 04:54:08;;;;;;;12.65;1.65;;;;;;;3.57;80.60;99611.53;7389809;19;20379;-56
2024/01/15 04:56:38;;;;;;;11.48;1.63;;;;;;;3.52;81.06;99600.53;7388942;19;20094;-59
2024/01/15 04:59:08;;;;;;;15.15;1.77;;;;;;;3.50;80.87;99598.00;7388750;19;20519;-58
2024/01/15 05:01:38;;;;;;;10.50;1.98;;;;;;;3.50;80.95;99594.53;7388215;19;20672;-57
2024/01/15 05:04:08;;;;;;;10.63;1.50;;;;;;;3.37;81.07;99594.47;7390585;19;20014;-59
2024/01/15 05:06:38;;;;;;;11.40;1.60;;;;;;;3.36;81.06;99592.81;7387363;19;20119;-59
2024/01/15 05:09:09;;;;;;;11.40;1.77;;;;;;;3.25;81.59;99596.09;7389007;19;20018;-56
2024/01/15 05:11:39;;;;;;;10.40;1.55;;;;;;;3.30;81.02;99587.94;7388161;19;20479;-55
2024/01/15 05:14:10;;;;;;;7.15;1.52;;;;;;;3.29;81.42;99588.88;7390166;19;20740;-59
2024/01/15 05:16:46;;;;;;;8.60;1.40;;;;;;;3.24;81.08;99594.38;7386469;19;20011;-59
2024/01/15 05:19:16;;;;;;;7.78;1.50;;;;;;;3.22;81.46;99603.28;7389975;19;20017;-59
2024/01/15 05:21:47;;;;;;;5.10;1.42;;;;;;;3.24;81.88;99598.78;7396851;19;20015;-59
2024/01/15 05:24:17;;;;;;;6.90;1.63;;;;;;;3.29;81.55;99604.59;7395350;19;20023;-60
2024/01/15 05:26:48;;;;;;;12.32;1.50;;;;;;;3.41;81.32;99598.59;7394489;19;20022;-58
2024/01/15 05:29:18;;;;;;;8.93;1.50;;;;;;;3.39;81.45;99597.81;7394743;19;20026;-59
2024/01/15 05:31:48;;;;;;;11.68;1.63;;;;;;;3.44;81.17;99597.56;7398468;19;20074;-58
2024/01/15 05:34:19;;;;;;;10.88;2.00;;;;;;;3.49;81.28;99598.94;7396232;19;20389;-59
2024/01/15 05:36:49;;;;;;;9.35;1.60;;;;;;;3.43;81.30;99594.06;7396295;19;20026;-59
2024/01/15 05:39:19;;;;;;;8.98;1.45;;;;;;;3.41;80.89;99586.34;7394850;19;20022;-58
2024/01/15 05:41:53;;;;;;;10.07;1.65;;;;;;;3.35;81.38;99596.34;7396534;19;20018;-59
2024/01/15 05:44:23;;;;;;;10.23;2.17;;;;;;;3.45;81.12;99600.06;7396404;19;20018;-59
2024/01/15 05:46:53;;;;;;;6.85;1.27;;;;;;;3.53;80.73;99599.59;7395363;19;20141;-58
2024/01/15 05:49:23;;;;;;;11.77;1.50;;;;;;;3.56;80.78;99612.47;7392223;19;20043;-59
2024/01/15 05:51:54;;;;;;;10.98;1.50;;;;;;;3.58;80.44;99615.81;7395558;19;20023;-58
2024/01/15 05:54:24;;;;;;;9.57;1.30;;;;;;;3.59;80.37;99604.44;7394195;19;20366;-56
2024/01/15 05:56:55;;;;;;;10.40;1.83;;;;;;;3.57;80.03;99598.44;7396285;19;20039;-58
2024/01/15 05:59:25;;;;;;;8.93;1.60;;;;;;;3.52;80.21;99595.28;7393974;19;20039;-56
2024/01/15 06:01:56;;;;;;;11.13;2.25;;;;;;;3.49;80.43;99612.03;7395696;19;20025;-57
2024/01/15 06:04:26;;;;;;;9.80;3.03;;;;;;;3.51;80.35;99604.94;7396077;19;20501;-58
2024/01/15 06:06:56;;;;;;;9.05;1.98;;;;;;;3.53;80.01;99607.44;7393161;19;20022;-57
2024/01/15 06:09:28;;;;;;;8.40;1.48;;;;;;;3.52;79.94;99609.22;7392572;19;20033;-58
2024/01/15 06:11:59;;;;;;;7.70;1.65;;;;;;;3.42;80.80;99597.63;7393477;19;20018;-57
2024/01/15 06:14:32;;;;;;;8.02;1.45;;;;;;;3.44;80.60;99598.41;7395680;19;20022;-57
2024/01/15 06:17:02;;;;;;;8.63;1.90;;;;;;;3.46;80.67;99599.13;7395120;19;20426;-58
2024/01/15 06:19:36;;;;;;;8.13;1.75;;;;;;;3.39;80.70;99596.03;7393238;19;20022;-56
2024/01/15 06:22:07;;;;;;;10.88;1.73;;;;;;;3.48;80.89;99592.03;7394690;19;20075;-58
2024/01/15 06:24:38;;;;;;;10.32;1.70;;;;;;;3.50;80.54;99590.13;7395454;19;20474;-57
2024/01/15 06:27:08;;;;;;;10.30;1.65;;;;;;;3.41;80.70;99588.13;7392927;19;20088;-58
2024/01/15 06:29:46;;;;;;;9.48;1.60;;;;;;;3.50;81.06;99591.91;7391639;19;20047;-59
2024/01/15 06:32:19;;;;;;;6.80;1.50;;;;;;;3.41;81.15;99583.72;7394389;19;20367;-57
2024/01/15 06:34:50;;;;;;;7.80;1.65;;;;;;;3.48;81.24;99586.78;7396733;19;20039;-56
2024/01/15 06:37:20;;;;;;;7.30;1.63;;;;;;;3.41;81.16;99595.97;7393828;19;20014;-56
2024/01/15 06:39:50;;;;;;;4.35;1.13;;;;;;;3.38;81.25;99593.53;7392007;19;20018;-57
2024/01/15 06:42:21;;;;;;;12.00;1.77;;;;;;;3.41;81.48;99611.66;7393393;19;20101;-58
2024/01/15 06:44:52;;;;;;;11.73;1.50;;;;;;;3.50;81.13;99605.00;7392368;19;20022;-57
2024/01/15 06:47:23;;;;;;;7.28;1.20;;;;;;;3.38;81.74;99612.69;7393220;19;20491;-58
2024/01/15 06:49:53;;;;;;;6.68;1.38;;;;;;;3.37;81.50;99608.41;7391265;19;20018;-57
2024/01/15 06:52:24;;;;;;;5.88;1.58;;;;;;;3.33;81.61;99619.16;7391765;19;20022;-58
2024/01/15 06:54:54;;;;;;;9.40;2.85;;;;;;;3.25;81.74;99617.00;7393721;19;20018;-57
2024/01/15 06:57:25;;;;;;;10.98;2.75;;;;;;;3.13;82.05;99626.47;7393410;19;20018;-58
2024/01/15 06:59:55;;;;;;;12.93;3.00;;;;;;;3.16;82.26;99626.25;7391299;19;20497;-58
2024/01/15 07:02:26;;;;;;;11.93;2.70;;;;;;;3.32;81.93;99627.91;7392040;19;20029;-57
2024/01/15 07:04:57;;;;;;;10.88;2.88;;;;;;;3.31;82.03;99632.31;7393697;19;20375;-54
2024/01/15 07:07:29;;;;;;;8.23;2.65;;;;;;;3.31;81.98;99618.41;7390474;19;20023;-58
2024/01/15 07:10:00;;;;;;;10.93;3.20;;;;;;;3.28;81.98;99618.59;7391022;19;20015;-58
2024/01/15 07:12:34;;;;;;;7.75;2.40;;;;;;;3.14;82.69;99632.53;7391648;19;20376;-59
2024/01/15 07:15:07;;;;;;;5.57;1.17;;;;;;;3.05;83.09;99648.75;7393234;19;20389;-58
2024/01/15 07:17:40;;;;;;;3.35;0.73;;;;;;;2.88;82.81;99621.88;7396138;19;20015;-59
2024/01/15 07:20:12;;;;;;;3.85;0.95;;;;;;;2.92;83.50;99640.81;7390737;19;20014;-59
2024/01/15 07:22:41;;;;;;;4.38;1.38;;;;;;;3.00;83.19;99627.28;7393179;19;20039;-60
2024/01/15 07:25:12;;;;;;;4.85;1.40;;;;;;;2.96;83.28;99639.72;7392465;19;20023;-58
2024/01/15 07:27:44;;;;;;;3.17;0.90;;;;;;;2.97;83.21;99651.84;7391021;19;20044;-59
2024/01/15 07:30:14;;;;;;;4.70;0.90;;;;;;;2.90;83.26;99643.53;7390798;19;20018;-59
2024/01/15 07:32:44;;;;;;;6.07;1.10;;;;;;;2.87;83.26;99641.09;7392983;19;20025;-58
2024/01/15 07:35:15;;;;;;;7.43;1.38;;;;;;;2.75;83.80;99620.94;7394746;19;20030;-59
2024/01/15 07:37:45;;;;;;;6.53;1.38;;;;;;;2.85;83.49;99642.97;7392445;19;20022;-60
2024/01/15 07:40:16;;;;;;;8.57;1.38;;;;;;;2.89;83.67;99636.59;7389908;19;20498;-57
2024/01/15 07:42:44;;;;;;;9.98;1.65;;;;;;;2.95;83.31;99642.44;7391112;19;20022;-58
2024/01/15 07:45:14;;;;;;;4.32;1.30;;;;;;;2.98;83.20;99647.44;7392460;19;20019;-58
2024/01/15 07:47:44;;;;;;;8.27;1.50;;;;;;;3.10;82.83;99654.56;7394114;19;20039;-59
2024/01/15 07:50:14;;;;;;;6.03;1.48;;;;;;;3.06;82.77;99656.53;7389525;19;20023;-58
2024/01/15 07:52:44;;;;;;;6.30;1.30;;;;;;;3.14;82.99;99651.66;7389894;19;20047;-54
2024/01/15 07:55:14;;;;;;;7.78;1.60;;;;;;;3.16;82.53;99659.41;7390485;19;20023;-59
2024/01/15 07:57:43;;;;;;;7.65;1.40;;;;;;;3.12;82.53;99671.84;7392220;19;20021;-58
2024/01/15 08:00:22;;;;;;;9.80;1.92;;;;;;;3.11;82.90;99678.00;7389025;19;20026;-58
2024/01/15 08:02:53;;;;;;;7.45;1.40;;;;;;;3.12;82.44;99671.84;7391343;19;20046;-59
2024/01/15 08:05:23;;;;;;;12.38;1.88;;;;;;;3.18;82.92;99663.63;7391031;19;20052;-59
2024/01/15 08:07:53;;;;;;;9.85;1.40;;;;;;;3.26;82.19;99667.56;7388025;19;20015;-57
2024/01/15 08:10:29;;;;;;;8.20;1.42;;;;;;;3.36;81.87;99664.28;7388481;19;20027;-58
2024/01/15 08:13:00;;;;;;;7.78;1.70;;;;;;;3.31;81.65;99660.25;7390841;19;20015;-58
2024/01/15 08:15:36;;;;;;;9.77;1.52;;;;;;;3.40;81.58;99651.84;7389453;19;20014;-57
2024/01/15 08:18:06;;;;;;;8.30;1.25;;;;;;;3.33;81.18;99648.78;7394981;19;20129;-58
2024/01/15 08:20:37;;;;;;;4.40;1.27;;;;;;;3.33;80.90;99650.56;7388588;19;20014;-58
2024/01/15 08:23:07;;;;;;;7.70;1.23;;;;;;;3.55;79.95;99652.66;7391120;19;20086;-56
2024/01/15 08:25:38;;;;;;;13.45;2.55;;;;;;;3.50;80.29;99645.09;7391162;19;20037;-59
2024/01/15 08:28:08;;;;;;;9.65;1.75;;;;;;;3.49;80.17;99660.91;7388896;19;20029;-58
2024/01/15 08:30:38;;;;;;;7.57;1.38;;;;;;;3.44;79.86;99637.66;7387776;19;20015;-57
2024/01/15 08:33:09;;;;;;;5.82;1.30;;;;;;;3.39;80.27;99652.78;7390442;19;20043;-58
2024/01/15 08:35:50;;;;;;;8.82;1.35;;;;;;;3.32;80.31;99651.47;7389502;19;20022;-58
2024/01/15 08:38:20;;;;;;;6.97;1.50;;;;;;;3.46;80.03;99650.63;7389872;19;20022;-59
2024/01/15 08:40:53;;;;;;;20.48;3.92;;;;;;;3.42;79.73;99666.50;7389752;19;20031;-59
2024/01/15 08:43:23;;;;;;;9.88;1.88;;;;;;;3.40;79.86;99667.56;7390605;19;20047;-54
2024/01/15 08:45:53;;;;;;;8.52;1.52;;;;;;;3.42;79.83;99674.34;7390776;19;20022;-54
2024/01/15 08:48:27;;;;;;;6.72;1.48;;;;;;;3.36;80.10;99677.38;7388982;19;20042;-58
2024/01/15 08:50:57;;;;;;;6.65;1.30;;;;;;;3.37;79.48;99689.50;7391005;19;20174;-59
2024/01/15 08:53:28;;;;;;;11.20;1.73;;;;;;;3.13;80.43;99676.16;7389923;19;20430;-59
2024/01/15 08:55:59;;;;;;;7.20;1.50;;;;;;;3.36;79.88;99671.31;7395985;19;20022;-59
2024/01/15 08:58:34;;;;;;;7.70;1.70;;;;;;;3.29;79.73;99673.44;7395745;19;20015;-58
2024/01/15 09:01:05;;;;;;;7.18;0.82;;;;;;;3.44;79.75;99674.28;7397124;19;20018;-59
2024/01/15 09:03:37;;;;;;;9.10;1.52;;;;;;;3.42;79.76;99665.66;7396176;19;20242;-59
2024/01/15 09:06:08;;;;;;;6.28;1.25;;;;;;;3.48;79.58;99660.06;7397462;19;20021;-58
2024/01/15 09:08:39;;;;;;;7.43;1.45;;;;;;;3.46;79.20;99661.94;7396658;19;20022;-58
2024/01/15 09:11:10;;;;;;;9.60;1.30;;;;;;;3.45;79.23;99675.94;7397211;19;20490;-57
2024/01/15 09:13:41;;;;;;;9.52;1.30;;;;;;;3.58;79.22;99668.19;7397815;19;20029;-58
2024/01/15 09:16:11;;;;;;;7.95;1.42;;;;;;;3.61;78.96;99665.38;7397471;19;20028;-59
2024/01/15 09:18:42;;;;;;;6.85;1.30;;;;;;;3.62;78.54;99662.66;7396283;19;20031;-56
2024/01/15 09:21:12;;;;;;;8.68;1.30;;;;;;;3.70;78.39;99666.56;7396084;19;20252;-58
2024/01/15 09:23:43;;;;;;;7.03;1.17;;;;;;;3.62;78.61;99674.91;7397141;19;20010;-58
2024/01/15 09:26:13;;;;;;;7.97;1.33;;;;;;;3.60;78.90;99685.47;7397693;19;20014;-58
2024/01/15 09:28:44;;;;;;;8.40;1.25;;;;;;;3.64;78.72;99689.59;7395630;19;20022;-58
2024/01/15 09:31:14;;;;;;;5.90;1.10;;;;;;;3.58;79.09;99692.56;7396116;19;20027;-58
2024/01/15 09:33:45;;;;;;;7.75;1.10;;;;;;;3.38;79.83;99691.19;7395601;19;20015;-59
2024/01/15 09:36:15;;;;;;;7.07;1.23;;;;;;;3.18;80.93;99694.19;7395476;19;20046;-59
2024/01/15 09:38:46;;;;;;;6.18;1.45;;;;;;;3.08;81.44;99688.66;7396445;19;20030;-59
2024/01/15 09:41:17;;;;;;;4.13;0.95;;;;;;;3.16;82.05;99690.81;7398776;19;20368;-59
2024/01/15 09:43:48;;;;;;;6.63;1.05;;;;;;;3.22;81.49;99674.75;7398154;19;20054;-60
2024/01/15 09:46:18;;;;;;;7.47;1.30;;;;;;;3.26;81.71;99678.03;7398140;19;20030;-56
2024/01/15 09:48:49;;;;;;;6.20;1.40;;;;;;;3.19;82.15;99677.53;7395499;19;20037;-57
2024/01/15 09:51:20;;;;;;;8.60;1.70;;;;;;;3.36;81.76;99677.38;7395433;19;20031;-54
2024/01/15 09:53:51;;;;;;;5.93;1.40;;;;;;;3.54;80.92;99680.59;7395640;19;20022;-59
2024/01/15 09:56:22;;;;;;;7.78;1.73;;;;;;;3.52;80.90;99689.50;7395612;19;20624;-59
2024/01/15 09:58:53;;;;;;;5.93;1.10;;;;;;;3.28;81.38;99687.47;7394642;19;20018;-60
2024/01/15 10:01:25;;;;;;;5.07;1.05;;;;;;;3.30;81.25;99689.97;7396224;19;20018;-56
2024/01/15 10:03:55;;;;;;;6.82;1.30;;;;;;;3.43;81.22;99688.28;7395394;19;20043;-61
2024/01/15 10:06:30;;;;;;;7.00;1.40;;;;;;;3.39;80.87;99690.25;7393069;19;20343;-59
2024/01/15 10:09:03;;;;;;;5.90;1.02;;;;;;;3.45;80.53;99686.44;7392489;19;20018;-59
2024/01/15 10:11:36;;;;;;;5.85;1.20;;;;;;;3.54;80.23;99690.25;7395865;19;20094;-59
2024/01/15 10:14:08;;;;;;;6.32;1.20;;;;;;;3.50;79.93;99684.34;7394677;19;20022;-60
2024/01/15 10:16:42;;;;;;;4.72;1.02;;;;;;;3.65;79.32;99678.16;7394152;19;20029;-59
2024/01/15 10:19:13;;;;;;;7.20;1.17;;;;;;;3.69;79.62;99683.22;7391836;19;20365;-60
2024/01/15 10:21:43;;;;;;;5.70;1.25;;;;;;;3.64;79.21;99668.63;7394820;19;20025;-58
2024/01/15 10:24:14;;;;;;;5.07;1.20;;;;;;;3.67;79.39;99678.09;7394934;19;20046;-58
2024/01/15 10:26:45;;;;;;;6.00;1.30;;;;;;;3.76;79.45;99679.28;7393168;19;20023;-56
2024/01/15 10:29:15;;;;;;;5.57;1.20;;;;;;;3.76;79.59;99671.44;7392168;19;20007;-57
2024/01/15 10:31:46;;;;;;;11.27;1.70;;;;;;;3.81;78.88;99666.72;7393839;19;20038;-59
2024/01/15 10:34:19;;;;;;;7.63;1.50;;;;;;;3.88;79.07;99679.34;7392871;19;20485;-58
2024/01/15 10:36:55;;;;;;;6.60;1.50;;;;;;;3.91;78.72;99663.44;7394097;19;20025;-58
2024/01/15 10:39:25;;;;;;;8.95;1.65;;;;;;;3.76;79.43;99663.56;7392770;19;20023;-59
2024/01/15 10:41:56;;;;;;;7.05;1.35;;;;;;;3.84;79.35;99672.63;7392466;19;20033;-59
2024/01/15 10:44:27;;;;;;;8.23;1.60;;;;;;;3.81;79.34;99678.03;7394375;19;20014;-58
2024/01/15 10:46:58;;;;;;;6.28;1.05;;;;;;;3.75;79.33;99677.59;7396128;19;20026;-59
2024/01/15 10:49:35;;;;;;;2.97;0.98;;;;;;;3.76;79.53;99680.13;7392317;19;20014;-59
2024/01/15 10:52:06;;;;;;;5.18;0.93;;;;;;;3.80;79.67;99691.25;7393227;19;20035;-59
2024/01/15 10:54:37;;;;;;;5.70;1.40;;;;;;;3.79;79.62;99674.69;7393855;19;20018;-57
2024/01/15 10:57:08;;;;;;;7.57;1.13;;;;;;;3.72;80.20;99680.41;7394267;19;20019;-60
2024/01/15 10:59:39;;;;;;;7.55;1.50;;;;;;;3.62;80.43;99690.59;7392168;19;20101;-59
2024/01/15 11:02:10;;;;;;;5.82;1.15;;;;;;;3.59;80.38;99680.34;7394180;19;20035;-58
2024/01/15 11:04:40;;;;;;;10.15;1.73;;;;;;;3.60;80.34;99685.47;7393045;19;20070;-56
2024/01/15 11:07:13;;;;;;;7.03;1.55;;;;;;;3.69;80.26;99670.97;7393042;19;20018;-57
2024/01/15 11:09:46;;;;;;;8.15;1.60;;;;;;;3.52;80.51;99677.25;7391171;19;20883;-59
2024/01/15 11:12:19;;;;;;;9.48;1.50;;;;;;;3.61;80.78;99665.38;7392875;19;20018;-59
2024/01/15 11:14:50;;;;;;;6.13;1.35;;;;;;;3.66;80.11;99669.41;7393568;19;20350;-59
2024/01/15 11:17:20;;;;;;;9.00;1.50;;;;;;;3.82;80.12;99673.66;7393882;19;20022;-58
2024/01/15 11:19:51;;;;;;;8.85;1.23;;;;;;;3.87;78.79;99661.13;7390981;19;20034;-57
2024/01/15 11:22:32;;;;;;;7.40;1.48;;;;;;;3.87;79.15;99672.44;7393478;19;20022;-59
2024/01/15 11:25:15;;;;;;;8.00;1.40;;;;;;;3.83;79.46;99665.69;7392378;19;20022;-60
2024/01/15 11:27:53;;;;;;;5.35;1.20;;;;;;;3.83;79.16;99663.09;7390028;19;20377;-59
2024/01/15 11:30:25;;;;;;;4.93;1.00;;;;;;;3.96;79.24;99665.75;7390524;19;20037;-57
2024/01/15 11:32:56;;;;;;;4.60;0.90;;;;;;;3.99;78.72;99670.81;7392280;19;20019;-57
2024/01/15 11:35:50;;;;;;;4.18;0.82;;;;;;;4.03;78.36;99668.81;7392472;19;20022;-60
2024/01/15 11:38:30;;;;;;;4.55;0.98;;;;;;;3.92;78.53;99669.50;7390109;19;20026;-58
2024/01/15 11:41:12;;;;;;;3.80;0.88;;;;;;;3.97;78.47;99672.69;7390671;19;20483;-58
2024/01/15 11:43:43;;;;;;;4.07;0.95;;;;;;;4.17;77.86;99673.19;7390769;19;20048;-58
2024/01/15 11:46:17;;;;;;;3.58;0.80;;;;;;;4.05;77.59;99667.81;7390312;19;20022;-59
2024/01/15 11:49:00;;;;;;;7.47;1.10;;;;;;;4.24;77.21;99672.69;7388670;19;20382;-56
2024/01/15 11:51:34;;;;;;;6.95;1.10;;;;;;;4.15;77.45;99681.13;7392239;19;20014;-57
2024/01/15 11:54:09;;;;;;;6.00;1.02;;;;;;;4.11;77.60;99684.88;7390402;19;20019;-58
2024/01/15 11:56:40;;;;;;;5.15;1.15;;;;;;;4.17;77.42;99674.03;7392686;19;20018;-60
2024/01/15 11:59:10;;;;;;;3.35;1.10;;;;;;;4.05;77.87;99672.22;7389204;19;20485;-59
2024/01/15 12:01:41;;;;;;;6.35;0.90;;;;;;;3.93;77.92;99673.84;7390497;19;20024;-54